sensor_id;sensor_type;location;lat;lon;timestamp;P1;durP1;ratioP1;P2;durP2;ratioP2
16689;SDS011;8458;52.220;9.884;2023-06-22T00:01:08;7.70;;;7.40;;
16689;SDS011;8458;52.220;9.884;2023-06-22T00:03:34;7.87;;;7.47;;
16689;SDS011;8458;52.220;9.884;2023-06-22T00:06:01;7.90;;;7.50;;
16689;SDS011;8458;52.220;9.884;2023-06-22T00:08:27;8.60;;;8.20;;
16689;SDS011;8458;52.220;9.884;2023-06-22T00:10:54;8.53;;;8.10;;
16689;SDS011;8458;52.220;9.884;2023-06-22T00:13:20;8.80;;;8.30;;
16689;SDS011;8458;52.220;9.884;2023-06-22T00:15:48;8.13;;;7.73;;
16689;SDS011;8458;52.220;9.884;2023-06-22T00:18:15;7.90;;;7.50;;
16689;SDS011;8458;52.220;9.884;2023-06-22T00:20:41;8.33;;;7.93;;
16689;SDS011;8458;52.220;9.884;2023-06-22T00:23:11;7.57;;;7.17;;
16689;SDS011;8458;52.220;9.884;2023-06-22T00:25:38;8.33;;;7.83;;
16689;SDS011;8458;52.220;9.884;2023-06-22T00:28:06;7.80;;;7.10;;
16689;SDS011;8458;52.220;9.884;2023-06-22T00:30:33;7.27;;;6.87;;
16689;SDS011;8458;52.220;9.884;2023-06-22T00:33:01;6.73;;;6.43;;
16689;SDS011;8458;52.220;9.884;2023-06-22T00:35:28;7.60;;;7.10;;
16689;SDS011;8458;52.220;9.884;2023-06-22T00:37:54;7.20;;;6.80;;
16689;SDS011;8458;52.220;9.884;2023-06-22T00:40:25;8.40;;;8.00;;
16689;SDS011;8458;52.220;9.884;2023-06-22T00:42:53;7.73;;;7.33;;
16689;SDS011;8458;52.220;9.884;2023-06-22T00:45:20;7.97;;;7.57;;
16689;SDS011;8458;52.220;9.884;2023-06-22T00:47:48;8.07;;;7.67;;
16689;SDS011;8458;52.220;9.884;2023-06-22T00:50:17;8.30;;;7.90;;
16689;SDS011;8458;52.220;9.884;2023-06-22T00:52:46;8.73;;;8.33;;
16689;SDS011;8458;52.220;9.884;2023-06-22T00:55:14;8.17;;;7.73;;
16689;SDS011;8458;52.220;9.884;2023-06-22T00:57:43;7.77;;;7.43;;
16689;SDS011;8458;52.220;9.884;2023-06-22T01:00:10;8.00;;;7.60;;
16689;SDS011;8458;52.220;9.884;2023-06-22T01:02:42;7.93;;;7.47;;
16689;SDS011;8458;52.220;9.884;2023-06-22T01:05:10;7.33;;;6.90;;
16689;SDS011;8458;52.220;9.884;2023-06-22T01:07:39;7.80;;;7.27;;
16689;SDS011;8458;52.220;9.884;2023-06-22T01:10:14;8.03;;;7.53;;
16689;SDS011;8458;52.220;9.884;2023-06-22T01:12:45;8.20;;;7.53;;
16689;SDS011;8458;52.220;9.884;2023-06-22T01:15:16;8.53;;;7.83;;
16689;SDS011;8458;52.220;9.884;2023-06-22T01:17:47;8.30;;;7.70;;
16689;SDS011;8458;52.220;9.884;2023-06-22T01:20:15;9.07;;;8.37;;
16689;SDS011;8458;52.220;9.884;2023-06-22T01:22:46;9.00;;;8.10;;
16689;SDS011;8458;52.220;9.884;2023-06-22T01:25:31;8.40;;;7.70;;
16689;SDS011;8458;52.220;9.884;2023-06-22T01:28:04;9.10;;;8.50;;
16689;SDS011;8458;52.220;9.884;2023-06-22T01:30:41;9.00;;;8.30;;
16689;SDS011;8458;52.220;9.884;2023-06-22T01:33:11;8.50;;;7.60;;
16689;SDS011;8458;52.220;9.884;2023-06-22T01:35:39;9.73;;;8.43;;
16689;SDS011;8458;52.220;9.884;2023-06-22T01:38:07;8.90;;;8.17;;
16689;SDS011;8458;52.220;9.884;2023-06-22T01:40:35;9.50;;;8.70;;
16689;SDS011;8458;52.220;9.884;2023-06-22T01:43:02;10.03;;;9.13;;
16689;SDS011;8458;52.220;9.884;2023-06-22T01:45:30;9.90;;;9.20;;
16689;SDS011;8458;52.220;9.884;2023-06-22T01:47:57;8.60;;;7.90;;
16689;SDS011;8458;52.220;9.884;2023-06-22T01:50:25;9.00;;;8.40;;
16689;SDS011;8458;52.220;9.884;2023-06-22T01:52:52;8.93;;;8.40;;
16689;SDS011;8458;52.220;9.884;2023-06-22T01:55:18;9.37;;;8.77;;
16689;SDS011;8458;52.220;9.884;2023-06-22T01:57:45;9.30;;;8.80;;
16689;SDS011;8458;52.220;9.884;2023-06-22T02:00:12;9.17;;;8.47;;
16689;SDS011;8458;52.220;9.884;2023-06-22T02:02:46;9.50;;;8.80;;
16689;SDS011;8458;52.220;9.884;2023-06-22T02:05:19;9.30;;;8.63;;
16689;SDS011;8458;52.220;9.884;2023-06-22T02:07:52;9.93;;;9.13;;
16689;SDS011;8458;52.220;9.884;2023-06-22T02:10:22;9.37;;;8.67;;
16689;SDS011;8458;52.220;9.884;2023-06-22T02:12:50;9.20;;;8.60;;
16689;SDS011;8458;52.220;9.884;2023-06-22T02:15:18;9.57;;;8.93;;
16689;SDS011;8458;52.220;9.884;2023-06-22T02:17:46;9.63;;;8.87;;
16689;SDS011;8458;52.220;9.884;2023-06-22T02:20:14;9.50;;;8.90;;
16689;SDS011;8458;52.220;9.884;2023-06-22T02:22:42;9.57;;;8.93;;
16689;SDS011;8458;52.220;9.884;2023-06-22T02:25:09;9.23;;;8.43;;
16689;SDS011;8458;52.220;9.884;2023-06-22T02:27:35;9.57;;;8.87;;
16689;SDS011;8458;52.220;9.884;2023-06-22T02:30:05;9.33;;;8.40;;
16689;SDS011;8458;52.220;9.884;2023-06-22T02:32:33;8.97;;;8.47;;
16689;SDS011;8458;52.220;9.884;2023-06-22T02:35:00;9.87;;;9.07;;
16689;SDS011;8458;52.220;9.884;2023-06-22T02:37:29;9.00;;;8.40;;
16689;SDS011;8458;52.220;9.884;2023-06-22T02:39:57;8.80;;;8.20;;
16689;SDS011;8458;52.220;9.884;2023-06-22T02:42:23;9.20;;;8.37;;
16689;SDS011;8458;52.220;9.884;2023-06-22T02:44:49;11.13;;;8.10;;
16689;SDS011;8458;52.220;9.884;2023-06-22T02:47:16;8.67;;;7.97;;
16689;SDS011;8458;52.220;9.884;2023-06-22T02:49:42;8.80;;;8.17;;
16689;SDS011;8458;52.220;9.884;2023-06-22T02:52:10;8.83;;;8.13;;
16689;SDS011;8458;52.220;9.884;2023-06-22T02:54:36;9.17;;;8.30;;
16689;SDS011;8458;52.220;9.884;2023-06-22T02:57:04;9.60;;;8.73;;
16689;SDS011;8458;52.220;9.884;2023-06-22T02:59:31;9.47;;;8.83;;
16689;SDS011;8458;52.220;9.884;2023-06-22T03:01:57;8.90;;;8.30;;
16689;SDS011;8458;52.220;9.884;2023-06-22T03:04:24;10.43;;;9.53;;
16689;SDS011;8458;52.220;9.884;2023-06-22T03:06:50;10.03;;;9.23;;
16689;SDS011;8458;52.220;9.884;2023-06-22T03:09:17;10.13;;;9.43;;
16689;SDS011;8458;52.220;9.884;2023-06-22T03:11:43;10.20;;;8.50;;
16689;SDS011;8458;52.220;9.884;2023-06-22T03:14:11;10.47;;;9.63;;
16689;SDS011;8458;52.220;9.884;2023-06-22T03:16:38;9.80;;;9.10;;
16689;SDS011;8458;52.220;9.884;2023-06-22T03:19:05;10.63;;;9.63;;
16689;SDS011;8458;52.220;9.884;2023-06-22T03:21:32;9.50;;;8.90;;
16689;SDS011;8458;52.220;9.884;2023-06-22T03:23:58;10.57;;;10.07;;
16689;SDS011;8458;52.220;9.884;2023-06-22T03:26:24;9.83;;;9.33;;
16689;SDS011;8458;52.220;9.884;2023-06-22T03:28:51;9.60;;;9.00;;
16689;SDS011;8458;52.220;9.884;2023-06-22T03:31:19;10.37;;;9.77;;
16689;SDS011;8458;52.220;9.884;2023-06-22T03:33:46;10.27;;;9.80;;
16689;SDS011;8458;52.220;9.884;2023-06-22T03:36:14;10.73;;;8.93;;
16689;SDS011;8458;52.220;9.884;2023-06-22T03:38:41;9.00;;;8.20;;
16689;SDS011;8458;52.220;9.884;2023-06-22T03:41:07;9.97;;;8.93;;
16689;SDS011;8458;52.220;9.884;2023-06-22T03:43:34;10.07;;;9.10;;
16689;SDS011;8458;52.220;9.884;2023-06-22T03:46:00;10.17;;;9.37;;
16689;SDS011;8458;52.220;9.884;2023-06-22T03:48:28;11.47;;;10.30;;
16689;SDS011;8458;52.220;9.884;2023-06-22T03:50:55;10.67;;;9.50;;
16689;SDS011;8458;52.220;9.884;2023-06-22T03:53:21;10.57;;;9.70;;
16689;SDS011;8458;52.220;9.884;2023-06-22T03:55:48;15.13;;;10.37;;
16689;SDS011;8458;52.220;9.884;2023-06-22T03:58:16;16.00;;;11.17;;
16689;SDS011;8458;52.220;9.884;2023-06-22T04:00:44;11.53;;;10.50;;
16689;SDS011;8458;52.220;9.884;2023-06-22T04:03:10;10.63;;;9.93;;
16689;SDS011;8458;52.220;9.884;2023-06-22T04:05:39;11.57;;;10.47;;
16689;SDS011;8458;52.220;9.884;2023-06-22T04:08:05;11.23;;;10.33;;
16689;SDS011;8458;52.220;9.884;2023-06-22T04:10:32;11.53;;;10.70;;
16689;SDS011;8458;52.220;9.884;2023-06-22T04:12:59;11.67;;;10.57;;
16689;SDS011;8458;52.220;9.884;2023-06-22T04:15:25;12.17;;;11.03;;
16689;SDS011;8458;52.220;9.884;2023-06-22T04:17:54;13.33;;;11.63;;
16689;SDS011;8458;52.220;9.884;2023-06-22T04:20:20;13.43;;;12.43;;
16689;SDS011;8458;52.220;9.884;2023-06-22T04:22:48;13.43;;;12.23;;
16689;SDS011;8458;52.220;9.884;2023-06-22T04:25:15;16.40;;;15.13;;
16689;SDS011;8458;52.220;9.884;2023-06-22T04:27:41;17.00;;;15.80;;
16689;SDS011;8458;52.220;9.884;2023-06-22T04:30:08;17.07;;;16.03;;
16689;SDS011;8458;52.220;9.884;2023-06-22T04:32:35;17.80;;;16.67;;
16689;SDS011;8458;52.220;9.884;2023-06-22T04:35:02;17.27;;;16.10;;
16689;SDS011;8458;52.220;9.884;2023-06-22T04:37:29;17.00;;;15.97;;
16689;SDS011;8458;52.220;9.884;2023-06-22T04:39:57;16.43;;;15.43;;
16689;SDS011;8458;52.220;9.884;2023-06-22T04:42:25;16.63;;;15.50;;
16689;SDS011;8458;52.220;9.884;2023-06-22T04:44:52;17.17;;;16.20;;
16689;SDS011;8458;52.220;9.884;2023-06-22T04:47:18;17.00;;;16.00;;
16689;SDS011;8458;52.220;9.884;2023-06-22T04:49:45;17.43;;;16.43;;
16689;SDS011;8458;52.220;9.884;2023-06-22T04:52:12;17.63;;;16.53;;
16689;SDS011;8458;52.220;9.884;2023-06-22T04:54:45;16.83;;;15.83;;
16689;SDS011;8458;52.220;9.884;2023-06-22T04:57:15;16.90;;;16.00;;
16689;SDS011;8458;52.220;9.884;2023-06-22T04:59:42;17.27;;;16.37;;
16689;SDS011;8458;52.220;9.884;2023-06-22T05:02:09;17.30;;;16.17;;
16689;SDS011;8458;52.220;9.884;2023-06-22T05:04:36;18.23;;;17.13;;
16689;SDS011;8458;52.220;9.884;2023-06-22T05:07:03;16.67;;;15.67;;
16689;SDS011;8458;52.220;9.884;2023-06-22T05:09:30;17.97;;;17.07;;
16689;SDS011;8458;52.220;9.884;2023-06-22T05:11:58;17.47;;;16.60;;
16689;SDS011;8458;52.220;9.884;2023-06-22T05:14:28;17.63;;;16.30;;
16689;SDS011;8458;52.220;9.884;2023-06-22T05:16:55;17.67;;;16.53;;
16689;SDS011;8458;52.220;9.884;2023-06-22T05:19:23;17.57;;;16.40;;
16689;SDS011;8458;52.220;9.884;2023-06-22T05:21:50;16.03;;;15.13;;
16689;SDS011;8458;52.220;9.884;2023-06-22T05:24:16;17.73;;;16.53;;
16689;SDS011;8458;52.220;9.884;2023-06-22T05:26:43;17.20;;;15.87;;
16689;SDS011;8458;52.220;9.884;2023-06-22T05:29:09;16.90;;;16.00;;
16689;SDS011;8458;52.220;9.884;2023-06-22T05:31:37;16.77;;;15.97;;
16689;SDS011;8458;52.220;9.884;2023-06-22T05:34:05;17.87;;;16.30;;
16689;SDS011;8458;52.220;9.884;2023-06-22T05:36:31;17.70;;;16.40;;
16689;SDS011;8458;52.220;9.884;2023-06-22T05:38:58;16.90;;;15.90;;
16689;SDS011;8458;52.220;9.884;2023-06-22T05:41:24;16.13;;;15.20;;
16689;SDS011;8458;52.220;9.884;2023-06-22T05:43:50;17.10;;;15.43;;
16689;SDS011;8458;52.220;9.884;2023-06-22T05:46:19;17.57;;;14.97;;
16689;SDS011;8458;52.220;9.884;2023-06-22T05:48:47;15.83;;;14.63;;
16689;SDS011;8458;52.220;9.884;2023-06-22T05:51:13;15.87;;;14.70;;
16689;SDS011;8458;52.220;9.884;2023-06-22T05:53:39;15.57;;;14.30;;
16689;SDS011;8458;52.220;9.884;2023-06-22T05:56:06;17.27;;;15.87;;
16689;SDS011;8458;52.220;9.884;2023-06-22T05:58:32;17.00;;;15.53;;
16689;SDS011;8458;52.220;9.884;2023-06-22T06:01:01;14.83;;;13.83;;
16689;SDS011;8458;52.220;9.884;2023-06-22T06:03:28;13.70;;;12.97;;
16689;SDS011;8458;52.220;9.884;2023-06-22T06:05:56;14.87;;;13.97;;
16689;SDS011;8458;52.220;9.884;2023-06-22T06:08:22;13.67;;;12.97;;
16689;SDS011;8458;52.220;9.884;2023-06-22T06:10:49;13.63;;;12.87;;
16689;SDS011;8458;52.220;9.884;2023-06-22T06:13:17;14.17;;;13.30;;
16689;SDS011;8458;52.220;9.884;2023-06-22T06:15:44;14.00;;;13.30;;
16689;SDS011;8458;52.220;9.884;2023-06-22T06:18:11;14.03;;;13.23;;
16689;SDS011;8458;52.220;9.884;2023-06-22T06:20:37;13.27;;;12.57;;
16689;SDS011;8458;52.220;9.884;2023-06-22T06:23:05;13.97;;;13.07;;
16689;SDS011;8458;52.220;9.884;2023-06-22T06:25:32;13.07;;;12.27;;
16689;SDS011;8458;52.220;9.884;2023-06-22T06:27:58;13.70;;;12.87;;
16689;SDS011;8458;52.220;9.884;2023-06-22T06:30:25;13.43;;;12.83;;
16689;SDS011;8458;52.220;9.884;2023-06-22T06:32:52;13.57;;;12.97;;
16689;SDS011;8458;52.220;9.884;2023-06-22T06:35:18;13.87;;;13.07;;
16689;SDS011;8458;52.220;9.884;2023-06-22T06:37:45;14.13;;;13.33;;
16689;SDS011;8458;52.220;9.884;2023-06-22T06:40:16;14.13;;;13.17;;
16689;SDS011;8458;52.220;9.884;2023-06-22T06:42:43;12.60;;;11.80;;
16689;SDS011;8458;52.220;9.884;2023-06-22T06:45:11;14.37;;;13.47;;
16689;SDS011;8458;52.220;9.884;2023-06-22T06:47:38;13.80;;;13.10;;
16689;SDS011;8458;52.220;9.884;2023-06-22T06:50:06;12.87;;;12.10;;
16689;SDS011;8458;52.220;9.884;2023-06-22T06:52:33;13.30;;;12.60;;
16689;SDS011;8458;52.220;9.884;2023-06-22T06:55:00;12.60;;;11.80;;
16689;SDS011;8458;52.220;9.884;2023-06-22T06:57:27;12.73;;;11.90;;
16689;SDS011;8458;52.220;9.884;2023-06-22T06:59:55;12.17;;;11.47;;
16689;SDS011;8458;52.220;9.884;2023-06-22T07:02:22;11.90;;;11.10;;
16689;SDS011;8458;52.220;9.884;2023-06-22T07:04:48;11.27;;;10.67;;
16689;SDS011;8458;52.220;9.884;2023-06-22T07:07:15;11.20;;;10.50;;
16689;SDS011;8458;52.220;9.884;2023-06-22T07:09:42;10.70;;;10.20;;
16689;SDS011;8458;52.220;9.884;2023-06-22T07:12:08;11.17;;;10.53;;
16689;SDS011;8458;52.220;9.884;2023-06-22T07:14:36;10.90;;;10.30;;
16689;SDS011;8458;52.220;9.884;2023-06-22T07:17:03;10.17;;;9.57;;
16689;SDS011;8458;52.220;9.884;2023-06-22T07:19:30;10.67;;;9.97;;
16689;SDS011;8458;52.220;9.884;2023-06-22T07:21:57;10.97;;;10.37;;
16689;SDS011;8458;52.220;9.884;2023-06-22T07:24:23;10.23;;;9.67;;
16689;SDS011;8458;52.220;9.884;2023-06-22T07:26:50;10.70;;;9.93;;
16689;SDS011;8458;52.220;9.884;2023-06-22T07:29:17;10.30;;;9.70;;
16689;SDS011;8458;52.220;9.884;2023-06-22T07:31:46;9.13;;;8.70;;
16689;SDS011;8458;52.220;9.884;2023-06-22T07:34:14;9.37;;;8.80;;
16689;SDS011;8458;52.220;9.884;2023-06-22T07:36:41;10.03;;;9.43;;
16689;SDS011;8458;52.220;9.884;2023-06-22T07:39:07;10.17;;;9.37;;
16689;SDS011;8458;52.220;9.884;2023-06-22T07:41:34;10.40;;;9.80;;
16689;SDS011;8458;52.220;9.884;2023-06-22T07:44:01;10.30;;;9.70;;
16689;SDS011;8458;52.220;9.884;2023-06-22T07:46:28;9.03;;;8.53;;
16689;SDS011;8458;52.220;9.884;2023-06-22T07:48:57;9.47;;;8.87;;
16689;SDS011;8458;52.220;9.884;2023-06-22T07:51:24;9.80;;;9.30;;
16689;SDS011;8458;52.220;9.884;2023-06-22T07:53:51;9.60;;;9.07;;
16689;SDS011;8458;52.220;9.884;2023-06-22T07:56:18;13.20;;;12.40;;
16689;SDS011;8458;52.220;9.884;2023-06-22T07:58:45;10.47;;;9.87;;
16689;SDS011;8458;52.220;9.884;2023-06-22T08:01:11;10.03;;;9.43;;
16689;SDS011;8458;52.220;9.884;2023-06-22T08:03:38;10.30;;;9.80;;
16689;SDS011;8458;52.220;9.884;2023-06-22T08:06:07;9.53;;;8.93;;
16689;SDS011;8458;52.220;9.884;2023-06-22T08:08:34;10.33;;;9.73;;
16689;SDS011;8458;52.220;9.884;2023-06-22T08:11:00;10.10;;;9.60;;
16689;SDS011;8458;52.220;9.884;2023-06-22T08:13:27;9.80;;;9.17;;
16689;SDS011;8458;52.220;9.884;2023-06-22T08:15:54;8.93;;;8.43;;
16689;SDS011;8458;52.220;9.884;2023-06-22T08:18:20;9.37;;;8.77;;
16689;SDS011;8458;52.220;9.884;2023-06-22T08:20:47;17.30;;;9.83;;
16689;SDS011;8458;52.220;9.884;2023-06-22T08:23:15;10.30;;;9.70;;
16689;SDS011;8458;52.220;9.884;2023-06-22T08:25:43;9.50;;;8.90;;
16689;SDS011;8458;52.220;9.884;2023-06-22T08:28:09;9.43;;;8.83;;
16689;SDS011;8458;52.220;9.884;2023-06-22T08:30:36;9.67;;;8.97;;
16689;SDS011;8458;52.220;9.884;2023-06-22T08:33:02;10.10;;;9.40;;
16689;SDS011;8458;52.220;9.884;2023-06-22T08:35:28;9.73;;;9.23;;
16689;SDS011;8458;52.220;9.884;2023-06-22T08:37:55;10.37;;;9.70;;
16689;SDS011;8458;52.220;9.884;2023-06-22T08:40:23;9.83;;;9.33;;
16689;SDS011;8458;52.220;9.884;2023-06-22T08:42:49;10.63;;;10.10;;
16689;SDS011;8458;52.220;9.884;2023-06-22T08:45:16;10.20;;;9.50;;
16689;SDS011;8458;52.220;9.884;2023-06-22T08:47:43;10.37;;;9.67;;
16689;SDS011;8458;52.220;9.884;2023-06-22T08:50:09;10.93;;;10.03;;
16689;SDS011;8458;52.220;9.884;2023-06-22T08:52:37;10.77;;;9.97;;
16689;SDS011;8458;52.220;9.884;2023-06-22T08:55:06;10.43;;;9.80;;
16689;SDS011;8458;52.220;9.884;2023-06-22T08:57:35;10.80;;;10.13;;
16689;SDS011;8458;52.220;9.884;2023-06-22T09:00:04;10.60;;;10.00;;
16689;SDS011;8458;52.220;9.884;2023-06-22T09:02:33;10.93;;;9.90;;
16689;SDS011;8458;52.220;9.884;2023-06-22T09:04:59;11.20;;;10.20;;
16689;SDS011;8458;52.220;9.884;2023-06-22T09:07:29;11.87;;;10.97;;
16689;SDS011;8458;52.220;9.884;2023-06-22T09:09:55;11.37;;;10.60;;
16689;SDS011;8458;52.220;9.884;2023-06-22T09:12:22;11.10;;;10.33;;
16689;SDS011;8458;52.220;9.884;2023-06-22T09:14:52;11.90;;;10.87;;
16689;SDS011;8458;52.220;9.884;2023-06-22T09:17:19;11.17;;;10.47;;
16689;SDS011;8458;52.220;9.884;2023-06-22T09:19:45;11.43;;;10.63;;
16689;SDS011;8458;52.220;9.884;2023-06-22T09:22:12;11.67;;;10.97;;
16689;SDS011;8458;52.220;9.884;2023-06-22T09:24:39;12.10;;;11.00;;
16689;SDS011;8458;52.220;9.884;2023-06-22T09:27:05;12.00;;;11.30;;
16689;SDS011;8458;52.220;9.884;2023-06-22T09:29:32;12.10;;;11.30;;
16689;SDS011;8458;52.220;9.884;2023-06-22T09:32:00;11.43;;;10.63;;
16689;SDS011;8458;52.220;9.884;2023-06-22T09:34:27;12.27;;;11.53;;
16689;SDS011;8458;52.220;9.884;2023-06-22T09:36:53;13.33;;;12.50;;
16689;SDS011;8458;52.220;9.884;2023-06-22T09:39:20;11.83;;;11.20;;
16689;SDS011;8458;52.220;9.884;2023-06-22T09:41:46;11.87;;;11.23;;
16689;SDS011;8458;52.220;9.884;2023-06-22T09:44:13;13.10;;;12.33;;
16689;SDS011;8458;52.220;9.884;2023-06-22T09:46:39;13.07;;;12.47;;
16689;SDS011;8458;52.220;9.884;2023-06-22T09:49:07;12.40;;;11.80;;
16689;SDS011;8458;52.220;9.884;2023-06-22T09:51:33;13.77;;;12.97;;
16689;SDS011;8458;52.220;9.884;2023-06-22T09:54:00;13.83;;;13.03;;
16689;SDS011;8458;52.220;9.884;2023-06-22T09:56:26;13.03;;;12.33;;
16689;SDS011;8458;52.220;9.884;2023-06-22T09:58:54;14.10;;;13.10;;
16689;SDS011;8458;52.220;9.884;2023-06-22T10:01:20;14.50;;;13.40;;
16689;SDS011;8458;52.220;9.884;2023-06-22T10:03:47;13.87;;;13.17;;
16689;SDS011;8458;52.220;9.884;2023-06-22T10:06:16;14.17;;;13.37;;
16689;SDS011;8458;52.220;9.884;2023-06-22T10:08:42;14.70;;;13.80;;
16689;SDS011;8458;52.220;9.884;2023-06-22T10:11:09;15.33;;;14.63;;
16689;SDS011;8458;52.220;9.884;2023-06-22T10:13:35;15.82;;;15.02;;
16689;SDS011;8458;52.220;9.884;2023-06-22T10:16:01;15.63;;;14.90;;
16689;SDS011;8458;52.220;9.884;2023-06-22T10:18:28;16.80;;;15.88;;
16689;SDS011;8458;52.220;9.884;2023-06-22T10:20:55;16.50;;;15.50;;
16689;SDS011;8458;52.220;9.884;2023-06-22T10:23:23;16.43;;;15.63;;
16689;SDS011;8458;52.220;9.884;2023-06-22T10:25:50;17.23;;;16.33;;
16689;SDS011;8458;52.220;9.884;2023-06-22T10:28:16;17.60;;;16.50;;
16689;SDS011;8458;52.220;9.884;2023-06-22T10:30:43;18.23;;;16.73;;
16689;SDS011;8458;52.220;9.884;2023-06-22T10:33:10;17.25;;;16.27;;
16689;SDS011;8458;52.220;9.884;2023-06-22T10:35:38;17.88;;;16.67;;
16689;SDS011;8458;52.220;9.884;2023-06-22T10:38:05;17.27;;;16.40;;
16689;SDS011;8458;52.220;9.884;2023-06-22T10:40:33;18.63;;;17.37;;
16689;SDS011;8458;52.220;9.884;2023-06-22T10:43:00;17.92;;;16.98;;
16689;SDS011;8458;52.220;9.884;2023-06-22T10:45:26;17.08;;;16.05;;
16689;SDS011;8458;52.220;9.884;2023-06-22T10:47:53;17.70;;;16.77;;
16689;SDS011;8458;52.220;9.884;2023-06-22T10:50:19;17.90;;;17.00;;
16689;SDS011;8458;52.220;9.884;2023-06-22T10:52:48;17.70;;;16.80;;
16689;SDS011;8458;52.220;9.884;2023-06-22T10:55:15;17.48;;;16.58;;
16689;SDS011;8458;52.220;9.884;2023-06-22T10:57:43;16.67;;;15.88;;
16689;SDS011;8458;52.220;9.884;2023-06-22T11:00:12;17.67;;;16.73;;
16689;SDS011;8458;52.220;9.884;2023-06-22T11:02:39;17.65;;;16.75;;
16689;SDS011;8458;52.220;9.884;2023-06-22T11:05:06;18.30;;;17.30;;
16689;SDS011;8458;52.220;9.884;2023-06-22T11:07:33;18.88;;;17.88;;
16689;SDS011;8458;52.220;9.884;2023-06-22T11:09:59;17.05;;;16.25;;
16689;SDS011;8458;52.220;9.884;2023-06-22T11:12:26;18.90;;;17.80;;
16689;SDS011;8458;52.220;9.884;2023-06-22T11:14:54;18.95;;;17.95;;
16689;SDS011;8458;52.220;9.884;2023-06-22T11:17:22;18.15;;;17.15;;
16689;SDS011;8458;52.220;9.884;2023-06-22T11:19:48;17.33;;;16.38;;
16689;SDS011;8458;52.220;9.884;2023-06-22T11:22:15;17.67;;;16.67;;
16689;SDS011;8458;52.220;9.884;2023-06-22T11:24:41;19.17;;;18.17;;
16689;SDS011;8458;52.220;9.884;2023-06-22T11:27:08;19.15;;;18.25;;
16689;SDS011;8458;52.220;9.884;2023-06-22T11:29:34;16.30;;;15.50;;
16689;SDS011;8458;52.220;9.884;2023-06-22T11:32:02;18.15;;;17.25;;
16689;SDS011;8458;52.220;9.884;2023-06-22T11:34:29;17.50;;;16.67;;
16689;SDS011;8458;52.220;9.884;2023-06-22T11:36:55;17.02;;;16.23;;
16689;SDS011;8458;52.220;9.884;2023-06-22T11:39:22;18.55;;;17.55;;
16689;SDS011;8458;52.220;9.884;2023-06-22T11:41:48;18.95;;;18.05;;
16689;SDS011;8458;52.220;9.884;2023-06-22T11:44:15;15.77;;;14.80;;
16689;SDS011;8458;52.220;9.884;2023-06-22T11:46:41;17.60;;;16.80;;
16689;SDS011;8458;52.220;9.884;2023-06-22T11:49:09;16.85;;;15.85;;
16689;SDS011;8458;52.220;9.884;2023-06-22T11:51:35;15.52;;;14.63;;
16689;SDS011;8458;52.220;9.884;2023-06-22T11:54:02;13.80;;;13.00;;
16689;SDS011;8458;52.220;9.884;2023-06-22T11:56:29;13.85;;;13.20;;
16689;SDS011;8458;52.220;9.884;2023-06-22T11:58:57;12.40;;;11.80;;
16689;SDS011;8458;52.220;9.884;2023-06-22T12:01:23;13.48;;;12.77;;
16689;SDS011;8458;52.220;9.884;2023-06-22T12:03:50;13.10;;;12.40;;
16689;SDS011;8458;52.220;9.884;2023-06-22T12:06:18;13.25;;;12.55;;
16689;SDS011;8458;52.220;9.884;2023-06-22T12:08:45;13.43;;;12.80;;
16689;SDS011;8458;52.220;9.884;2023-06-22T12:11:12;12.32;;;11.63;;
16689;SDS011;8458;52.220;9.884;2023-06-22T12:13:38;11.93;;;11.43;;
16689;SDS011;8458;52.220;9.884;2023-06-22T12:16:05;12.18;;;11.48;;
16689;SDS011;8458;52.220;9.884;2023-06-22T12:18:32;11.73;;;11.13;;
16689;SDS011;8458;52.220;9.884;2023-06-22T12:20:59;11.38;;;10.77;;
16689;SDS011;8458;52.220;9.884;2023-06-22T12:23:27;11.05;;;10.45;;
16689;SDS011;8458;52.220;9.884;2023-06-22T12:25:54;10.95;;;10.35;;
16689;SDS011;8458;52.220;9.884;2023-06-22T12:28:20;11.32;;;10.70;;
16689;SDS011;8458;52.220;9.884;2023-06-22T12:30:48;11.10;;;10.60;;
16689;SDS011;8458;52.220;9.884;2023-06-22T12:33:15;10.82;;;10.30;;
16689;SDS011;8458;52.220;9.884;2023-06-22T12:35:41;11.85;;;11.25;;
16689;SDS011;8458;52.220;9.884;2023-06-22T12:38:08;11.15;;;10.55;;
16689;SDS011;8458;52.220;9.884;2023-06-22T12:40:36;11.63;;;11.02;;
16689;SDS011;8458;52.220;9.884;2023-06-22T12:43:02;11.07;;;10.57;;
16689;SDS011;8458;52.220;9.884;2023-06-22T12:45:29;11.27;;;10.57;;
16689;SDS011;8458;52.220;9.884;2023-06-22T12:47:58;12.48;;;11.82;;
16689;SDS011;8458;52.220;9.884;2023-06-22T12:50:25;11.55;;;10.85;;
16689;SDS011;8458;52.220;9.884;2023-06-22T12:52:51;12.63;;;11.73;;
16689;SDS011;8458;52.220;9.884;2023-06-22T12:55:18;11.60;;;11.07;;
16689;SDS011;8458;52.220;9.884;2023-06-22T12:57:46;11.40;;;10.80;;
16689;SDS011;8458;52.220;9.884;2023-06-22T13:00:12;11.75;;;11.00;;
16689;SDS011;8458;52.220;9.884;2023-06-22T13:02:39;11.23;;;10.63;;
16689;SDS011;8458;52.220;9.884;2023-06-22T13:05:07;10.38;;;9.88;;
16689;SDS011;8458;52.220;9.884;2023-06-22T13:07:34;10.23;;;9.73;;
16689;SDS011;8458;52.220;9.884;2023-06-22T13:10:01;9.95;;;9.43;;
16689;SDS011;8458;52.220;9.884;2023-06-22T13:12:27;9.30;;;8.80;;
16689;SDS011;8458;52.220;9.884;2023-06-22T13:14:55;9.68;;;9.18;;
16689;SDS011;8458;52.220;9.884;2023-06-22T13:17:21;9.25;;;8.75;;
16689;SDS011;8458;52.220;9.884;2023-06-22T13:19:48;9.20;;;8.80;;
16689;SDS011;8458;52.220;9.884;2023-06-22T13:22:27;8.48;;;8.02;;
16689;SDS011;8458;52.220;9.884;2023-06-22T13:24:55;9.43;;;8.98;;
16689;SDS011;8458;52.220;9.884;2023-06-22T13:27:22;9.70;;;9.20;;
16689;SDS011;8458;52.220;9.884;2023-06-22T13:29:49;9.25;;;8.75;;
16689;SDS011;8458;52.220;9.884;2023-06-22T13:32:17;9.45;;;9.02;;
16689;SDS011;8458;52.220;9.884;2023-06-22T13:34:44;8.98;;;8.23;;
16689;SDS011;8458;52.220;9.884;2023-06-22T13:37:10;8.68;;;7.97;;
16689;SDS011;8458;52.220;9.884;2023-06-22T13:39:37;8.10;;;7.60;;
16689;SDS011;8458;52.220;9.884;2023-06-22T13:42:03;8.30;;;7.57;;
16689;SDS011;8458;52.220;9.884;2023-06-22T13:44:30;8.13;;;7.53;;
16689;SDS011;8458;52.220;9.884;2023-06-22T13:46:57;8.52;;;7.82;;
16689;SDS011;8458;52.220;9.884;2023-06-22T13:49:25;8.32;;;7.65;;
16689;SDS011;8458;52.220;9.884;2023-06-22T13:51:52;8.68;;;7.85;;
16689;SDS011;8458;52.220;9.884;2023-06-22T13:54:18;8.48;;;7.97;;
16689;SDS011;8458;52.220;9.884;2023-06-22T13:56:45;9.25;;;8.55;;
16689;SDS011;8458;52.220;9.884;2023-06-22T13:59:11;8.93;;;8.32;;
16689;SDS011;8458;52.220;9.884;2023-06-22T14:01:38;9.13;;;8.73;;
16689;SDS011;8458;52.220;9.884;2023-06-22T14:04:05;9.27;;;8.77;;
16689;SDS011;8458;52.220;9.884;2023-06-22T14:06:33;8.98;;;8.57;;
16689;SDS011;8458;52.220;9.884;2023-06-22T14:08:59;9.82;;;9.32;;
16689;SDS011;8458;52.220;9.884;2023-06-22T14:11:26;9.27;;;8.77;;
16689;SDS011;8458;52.220;9.884;2023-06-22T14:13:52;8.65;;;8.10;;
16689;SDS011;8458;52.220;9.884;2023-06-22T14:16:19;8.77;;;8.38;;
16689;SDS011;8458;52.220;9.884;2023-06-22T14:18:45;9.40;;;8.68;;
16689;SDS011;8458;52.220;9.884;2023-06-22T14:21:11;8.63;;;8.23;;
16689;SDS011;8458;52.220;9.884;2023-06-22T14:23:39;9.07;;;8.55;;
16689;SDS011;8458;52.220;9.884;2023-06-22T14:26:06;8.77;;;8.35;;
16689;SDS011;8458;52.220;9.884;2023-06-22T14:28:32;8.55;;;8.15;;
16689;SDS011;8458;52.220;9.884;2023-06-22T14:30:59;8.88;;;8.48;;
16689;SDS011;8458;52.220;9.884;2023-06-22T14:33:25;9.52;;;9.02;;
16689;SDS011;8458;52.220;9.884;2023-06-22T14:35:52;8.93;;;8.48;;
16689;SDS011;8458;52.220;9.884;2023-06-22T14:38:18;8.88;;;8.48;;
16689;SDS011;8458;52.220;9.884;2023-06-22T14:40:47;9.13;;;8.73;;
16689;SDS011;8458;52.220;9.884;2023-06-22T14:43:14;8.40;;;8.00;;
16689;SDS011;8458;52.220;9.884;2023-06-22T14:45:40;8.35;;;7.95;;